Old Moulton, Texas
Current Conditions -  °F | °C
As of 12:35 AM on Wednesday 26 Nov 2014 (Local Time) from KT20 Reporting Station
Clear Clear  
Wind Chill: 46°   Ceiling: Unl
Heat Index: 46°   Visibility: 10mi
Dew Point: 33°   Wind: 3mph
Humidity: 61%   Direction: 210°SSW
Pressure: 30.23"   Gusts: NA
Location:  29.5667°N, 97.0723°W
Report Text: KT20 260635Z AUTO 21003KT 10SM CLR 08/01 A3023 RMK AO2 T00800008
Loading
Personal Weather Stations






























Interactive Weather Map New forecast layout! Learn more

10-Day Weather Forecast

Advertisements
Track Severe Weather on mobile